createdAt,value
2022-12-31T00:00:00.457Z,11.0
2022-12-31T00:05:00.469Z,11.1
2022-12-31T00:10:00.482Z,11.2
2022-12-31T00:15:00.474Z,11.2
2022-12-31T00:20:00.486Z,11.2
2022-12-31T00:25:00.498Z,11.2
2022-12-31T00:30:04.518Z,11.2
2022-12-31T00:35:00.480Z,11.4
2022-12-31T00:40:00.454Z,11.3
2022-12-31T00:45:00.485Z,11.3
2022-12-31T00:50:00.441Z,11.4
2022-12-31T00:55:00.484Z,11.5
2022-12-31T01:00:00.459Z,11.5
2022-12-31T01:05:00.495Z,11.6
2022-12-31T01:10:00.449Z,12.0
2022-12-31T01:15:00.463Z,12.2
2022-12-31T01:20:00.472Z,12.0
2022-12-31T01:25:00.489Z,12.0
2022-12-31T01:30:00.455Z,11.9
2022-12-31T01:35:00.465Z,11.9
2022-12-31T01:40:00.471Z,11.9
2022-12-31T01:45:00.484Z,11.9
2022-12-31T01:50:00.437Z,12.0
2022-12-31T01:55:00.487Z,12.0
2022-12-31T02:00:00.436Z,12.0
2022-12-31T02:05:00.499Z,12.0
2022-12-31T02:10:00.462Z,12.1
2022-12-31T02:15:00.455Z,12.1
2022-12-31T02:20:00.460Z,12.1
2022-12-31T02:25:00.499Z,12.1
2022-12-31T02:30:00.434Z,12.2
2022-12-31T02:35:00.489Z,12.1
2022-12-31T02:40:00.447Z,12.1
2022-12-31T02:45:00.459Z,12.1
2022-12-31T02:50:00.457Z,12.0
2022-12-31T02:55:00.463Z,12.0
2022-12-31T03:00:00.471Z,11.9
2022-12-31T03:05:00.471Z,12.0
2022-12-31T03:10:00.502Z,11.9
2022-12-31T03:15:00.475Z,11.9
2022-12-31T03:20:00.439Z,11.8
2022-12-31T03:25:00.498Z,11.8
2022-12-31T03:30:00.447Z,11.6
2022-12-31T03:35:00.488Z,11.6
2022-12-31T03:40:00.458Z,11.6
2022-12-31T03:45:00.495Z,11.6
2022-12-31T03:50:00.442Z,11.6
2022-12-31T03:55:00.480Z,11.7
2022-12-31T04:00:00.430Z,11.7
2022-12-31T04:05:00.470Z,11.8
2022-12-31T04:10:00.461Z,11.7
2022-12-31T04:15:00.472Z,11.7
2022-12-31T04:20:00.438Z,11.9
2022-12-31T04:25:00.491Z,11.8
2022-12-31T04:30:00.433Z,11.9
2022-12-31T04:35:00.487Z,11.9
2022-12-31T04:40:05.888Z,11.9
2022-12-31T04:45:00.466Z,11.8
2022-12-31T04:50:00.494Z,11.9
2022-12-31T04:55:00.479Z,11.9
2022-12-31T05:00:00.470Z,11.9
2022-12-31T05:05:00.435Z,11.9
2022-12-31T05:10:00.482Z,11.9
2022-12-31T05:15:00.481Z,12.1
2022-12-31T05:20:00.477Z,12.0
2022-12-31T05:25:00.485Z,11.9
2022-12-31T05:30:00.484Z,12.0
2022-12-31T05:35:00.441Z,12.0
2022-12-31T05:40:00.500Z,11.9
2022-12-31T05:45:00.441Z,11.9
2022-12-31T05:50:00.479Z,11.9
2022-12-31T05:55:00.621Z,11.9
2022-12-31T06:00:00.481Z,11.8
2022-12-31T06:05:00.475Z,11.9
2022-12-31T06:10:00.446Z,11.7
2022-12-31T06:15:00.481Z,11.7
2022-12-31T06:20:01.267Z,11.6
2022-12-31T06:25:00.482Z,11.6
2022-12-31T06:30:00.428Z,11.6
2022-12-31T06:35:00.472Z,11.7
2022-12-31T06:40:00.479Z,11.4
2022-12-31T06:45:00.493Z,11.4
2022-12-31T06:50:00.487Z,11.5
2022-12-31T06:55:00.464Z,11.5
2022-12-31T07:00:00.494Z,11.5
2022-12-31T07:05:00.445Z,11.6
2022-12-31T07:10:00.495Z,11.6
2022-12-31T07:15:00.499Z,11.4
2022-12-31T07:20:00.427Z,11.4
2022-12-31T07:25:00.499Z,11.4
2022-12-31T07:30:00.480Z,11.3
2022-12-31T07:35:00.451Z,11.4
2022-12-31T07:40:00.467Z,11.2
2022-12-31T07:45:00.474Z,11.4
2022-12-31T07:50:00.462Z,11.3
2022-12-31T07:55:00.465Z,11.3
2022-12-31T08:00:00.469Z,11.3
2022-12-31T08:05:00.643Z,11.4
2022-12-31T08:10:00.462Z,11.2
2022-12-31T08:15:00.472Z,11.2
2022-12-31T08:20:00.505Z,11.3
2022-12-31T08:25:00.460Z,11.4
2022-12-31T08:30:00.470Z,11.5
2022-12-31T08:35:00.474Z,11.5
2022-12-31T08:40:00.469Z,11.5
2022-12-31T08:45:00.447Z,11.5
2022-12-31T08:50:00.504Z,11.5
2022-12-31T08:55:00.473Z,11.6
2022-12-31T09:00:00.441Z,11.6
2022-12-31T09:05:00.486Z,11.5
2022-12-31T09:10:00.431Z,11.6
2022-12-31T09:15:00.479Z,11.7
2022-12-31T09:20:00.469Z,11.7
2022-12-31T09:25:00.462Z,11.8
2022-12-31T09:30:00.436Z,11.9
2022-12-31T09:35:00.472Z,11.6
2022-12-31T09:40:00.485Z,11.8
2022-12-31T09:45:00.469Z,11.6
2022-12-31T09:50:00.454Z,11.7
2022-12-31T09:55:00.483Z,11.8
2022-12-31T10:00:00.438Z,11.8
2022-12-31T10:05:00.494Z,11.8
2022-12-31T10:10:00.483Z,11.9
2022-12-31T10:15:00.467Z,11.9
2022-12-31T10:20:00.427Z,11.9
2022-12-31T10:25:00.464Z,11.8
2022-12-31T10:30:00.462Z,12.0
2022-12-31T10:35:00.477Z,11.9
2022-12-31T10:40:00.475Z,12.1
2022-12-31T10:45:00.659Z,12.0
2022-12-31T10:50:00.442Z,12.0
2022-12-31T10:55:00.467Z,12.1
2022-12-31T11:00:00.549Z,12.1
2022-12-31T11:05:00.491Z,12.2
2022-12-31T11:10:00.451Z,12.1
2022-12-31T11:15:00.503Z,12.2
2022-12-31T11:20:00.466Z,12.2
2022-12-31T11:25:00.491Z,12.4
2022-12-31T11:30:00.439Z,12.5
2022-12-31T11:35:00.491Z,12.5
2022-12-31T11:40:00.458Z,12.6
2022-12-31T11:45:00.529Z,12.7
2022-12-31T11:50:00.491Z,12.8
2022-12-31T11:55:00.494Z,12.8
2022-12-31T12:00:00.444Z,12.9
2022-12-31T12:05:03.818Z,12.9
2022-12-31T12:10:00.432Z,13.2
2022-12-31T12:15:00.472Z,13.5
2022-12-31T12:20:00.464Z,13.5
2022-12-31T12:25:00.526Z,13.5
2022-12-31T12:30:00.430Z,13.6
2022-12-31T12:35:00.474Z,13.7
2022-12-31T12:40:00.485Z,13.6
2022-12-31T12:45:00.481Z,13.7
2022-12-31T12:50:00.475Z,13.6
2022-12-31T12:55:00.462Z,13.7
2022-12-31T13:00:00.676Z,13.7
2022-12-31T13:05:00.470Z,13.6
2022-12-31T13:10:00.446Z,13.6
2022-12-31T13:15:00.460Z,13.7
2022-12-31T13:20:00.490Z,13.6
2022-12-31T13:25:00.451Z,13.6
2022-12-31T13:30:00.483Z,13.6
2022-12-31T13:35:00.455Z,13.9
2022-12-31T13:40:00.466Z,13.9
2022-12-31T13:45:00.512Z,13.8
2022-12-31T13:50:00.498Z,13.9
2022-12-31T13:55:00.462Z,13.9
2022-12-31T14:00:00.677Z,14.0
2022-12-31T14:05:00.439Z,13.9
2022-12-31T14:10:00.491Z,13.9
2022-12-31T14:15:00.644Z,13.9
2022-12-31T14:20:00.468Z,13.9
2022-12-31T14:25:00.464Z,13.9
2022-12-31T14:30:00.470Z,13.8
2022-12-31T14:35:00.475Z,13.8
2022-12-31T14:40:00.465Z,13.8
2022-12-31T14:45:00.482Z,13.8
2022-12-31T14:50:00.444Z,13.8
2022-12-31T14:55:00.463Z,13.8
2022-12-31T15:00:00.521Z,13.7
2022-12-31T15:05:00.479Z,13.7
2022-12-31T15:10:00.508Z,13.7
2022-12-31T15:15:00.480Z,13.6
2022-12-31T15:20:00.577Z,13.6
2022-12-31T15:25:00.510Z,13.6
2022-12-31T15:30:00.493Z,13.6
2022-12-31T15:35:00.481Z,13.6
2022-12-31T15:40:00.537Z,13.5
2022-12-31T15:45:00.509Z,13.4
2022-12-31T15:50:00.582Z,13.4
2022-12-31T15:55:00.479Z,13.4
2022-12-31T16:00:00.436Z,13.4
2022-12-31T16:05:00.530Z,13.4
2022-12-31T16:10:00.435Z,13.4
2022-12-31T16:15:00.732Z,13.3
2022-12-31T16:20:00.445Z,13.3
2022-12-31T16:30:00.596Z,13.2
2022-12-31T16:35:00.499Z,13.2
2022-12-31T16:40:00.447Z,13.2
2022-12-31T16:45:00.480Z,13.2
2022-12-31T16:50:00.465Z,13.2
2022-12-31T16:55:00.496Z,13.0
2022-12-31T17:00:00.442Z,13.0
2022-12-31T17:05:00.464Z,13.1
2022-12-31T17:10:00.446Z,13.1
2022-12-31T17:15:00.463Z,13.1
2022-12-31T17:20:00.461Z,13.1
2022-12-31T17:25:00.481Z,13.1
2022-12-31T17:30:00.433Z,13.0
2022-12-31T17:35:02.629Z,13.1
2022-12-31T17:40:17.359Z,13.1
2022-12-31T17:45:00.468Z,13.3
2022-12-31T17:50:02.680Z,13.3
2022-12-31T17:55:00.446Z,13.4
2022-12-31T18:00:00.561Z,13.4
2022-12-31T18:05:00.502Z,14.1
2022-12-31T18:10:00.436Z,14.0
2022-12-31T18:15:00.478Z,13.9
2022-12-31T18:20:05.151Z,13.9
2022-12-31T18:25:00.462Z,13.9
2022-12-31T18:30:04.805Z,13.9
2022-12-31T18:35:00.449Z,14.0
2022-12-31T18:40:00.463Z,14.1
2022-12-31T18:45:00.469Z,14.2
2022-12-31T18:50:00.544Z,14.1
2022-12-31T18:55:00.464Z,14.2
2022-12-31T19:00:00.489Z,14.1
2022-12-31T19:05:00.454Z,14.2
2022-12-31T19:10:00.471Z,14.1
2022-12-31T19:15:00.452Z,14.0
2022-12-31T19:20:00.493Z,14.0
2022-12-31T19:25:00.471Z,14.1
2022-12-31T19:30:00.450Z,14.1
2022-12-31T19:35:00.477Z,14.1
2022-12-31T19:40:00.428Z,14.1
2022-12-31T19:45:00.630Z,14.1
2022-12-31T19:50:00.461Z,14.2
2022-12-31T19:55:00.452Z,14.1
2022-12-31T20:00:00.431Z,14.1
2022-12-31T20:05:00.463Z,14.1
2022-12-31T20:10:00.459Z,14.2
2022-12-31T20:15:00.465Z,14.2
2022-12-31T20:20:00.431Z,14.3
2022-12-31T20:25:00.475Z,14.3
2022-12-31T20:30:00.427Z,14.3
2022-12-31T20:35:00.467Z,14.4
2022-12-31T20:40:00.471Z,14.4
2022-12-31T20:45:00.469Z,14.4
2022-12-31T20:50:11.700Z,14.5
2022-12-31T20:55:00.434Z,14.4
2022-12-31T21:00:00.560Z,14.5
2022-12-31T21:05:00.653Z,14.5
2022-12-31T21:10:00.462Z,14.5
2022-12-31T21:15:00.495Z,14.6
2022-12-31T21:20:00.433Z,14.6
2022-12-31T21:25:00.483Z,14.6
2022-12-31T21:30:19.803Z,14.6
2022-12-31T21:35:40.426Z,14.7
2022-12-31T21:40:00.436Z,14.7
2022-12-31T21:45:00.467Z,14.8
2022-12-31T21:50:00.461Z,14.7
2022-12-31T21:55:00.472Z,14.8
2022-12-31T22:00:31.861Z,14.8
2022-12-31T22:05:02.411Z,14.8
2022-12-31T22:10:00.445Z,14.8
2022-12-31T22:15:15.476Z,14.9
2022-12-31T22:20:25.893Z,14.9
2022-12-31T22:25:00.516Z,14.9
2022-12-31T22:30:00.479Z,14.9
2022-12-31T22:35:00.483Z,14.9
2022-12-31T22:40:00.461Z,14.9
2022-12-31T22:45:00.441Z,15.0
2022-12-31T22:50:00.481Z,15.0
2022-12-31T22:55:00.496Z,15.0
2022-12-31T23:00:00.555Z,15.0
2022-12-31T23:05:14.738Z,15.1
2022-12-31T23:10:00.478Z,15.0
2022-12-31T23:15:00.461Z,15.1
2022-12-31T23:20:00.475Z,15.1
2022-12-31T23:25:00.467Z,15.1
2022-12-31T23:30:00.470Z,15.1
2022-12-31T23:35:04.592Z,15.1
2022-12-31T23:40:00.487Z,15.2
2022-12-31T23:45:00.490Z,15.2
2022-12-31T23:50:00.505Z,15.2
2022-12-31T23:55:00.493Z,15.2
